sensor_id;sensor_type;location;lat;lon;timestamp;temperature;humidity
68354;DHT22;55274;43.060;25.618;2023-05-20T00:00:25;13.70;99.90
68354;DHT22;55274;43.060;25.618;2023-05-20T00:02:50;13.70;99.90
68354;DHT22;55274;43.060;25.618;2023-05-20T00:05:16;13.80;99.90
68354;DHT22;55274;43.060;25.618;2023-05-20T00:07:42;13.70;99.90
68354;DHT22;55274;43.060;25.618;2023-05-20T00:10:08;13.70;99.90
68354;DHT22;55274;43.060;25.618;2023-05-20T00:12:34;13.70;99.90
68354;DHT22;55274;43.060;25.618;2023-05-20T00:15:00;13.70;99.90
68354;DHT22;55274;43.060;25.618;2023-05-20T00:17:26;13.60;99.90
68354;DHT22;55274;43.060;25.618;2023-05-20T00:19:53;13.60;99.90
68354;DHT22;55274;43.060;25.618;2023-05-20T00:22:19;13.70;99.90
68354;DHT22;55274;43.060;25.618;2023-05-20T00:24:45;13.70;99.90
68354;DHT22;55274;43.060;25.618;2023-05-20T00:27:11;13.70;99.90
68354;DHT22;55274;43.060;25.618;2023-05-20T00:29:36;13.70;99.90
68354;DHT22;55274;43.060;25.618;2023-05-20T00:32:02;13.60;99.90
68354;DHT22;55274;43.060;25.618;2023-05-20T00:34:28;13.60;99.90
68354;DHT22;55274;43.060;25.618;2023-05-20T00:36:54;13.60;99.90
68354;DHT22;55274;43.060;25.618;2023-05-20T00:39:19;13.70;99.90
68354;DHT22;55274;43.060;25.618;2023-05-20T00:41:45;13.60;99.90
68354;DHT22;55274;43.060;25.618;2023-05-20T00:44:11;13.60;99.90
68354;DHT22;55274;43.060;25.618;2023-05-20T00:46:37;13.60;99.90
68354;DHT22;55274;43.060;25.618;2023-05-20T00:49:03;13.60;99.90
68354;DHT22;55274;43.060;25.618;2023-05-20T00:51:30;13.60;99.90
68354;DHT22;55274;43.060;25.618;2023-05-20T00:53:56;13.60;99.90
68354;DHT22;55274;43.060;25.618;2023-05-20T00:56:22;13.60;99.90
68354;DHT22;55274;43.060;25.618;2023-05-20T00:58:49;13.60;99.90
68354;DHT22;55274;43.060;25.618;2023-05-20T01:01:15;13.60;99.90
68354;DHT22;55274;43.060;25.618;2023-05-20T01:03:41;13.60;99.90
68354;DHT22;55274;43.060;25.618;2023-05-20T01:06:07;13.60;99.90
68354;DHT22;55274;43.060;25.618;2023-05-20T01:08:33;13.60;99.90
68354;DHT22;55274;43.060;25.618;2023-05-20T01:11:05;13.60;99.90
68354;DHT22;55274;43.060;25.618;2023-05-20T01:13:57;13.50;99.90
68354;DHT22;55274;43.060;25.618;2023-05-20T01:16:25;13.50;99.90
68354;DHT22;55274;43.060;25.618;2023-05-20T01:18:54;13.50;99.90
68354;DHT22;55274;43.060;25.618;2023-05-20T01:21:20;13.50;99.90
68354;DHT22;55274;43.060;25.618;2023-05-20T01:23:46;13.50;99.90
68354;DHT22;55274;43.060;25.618;2023-05-20T01:26:13;13.50;99.90
68354;DHT22;55274;43.060;25.618;2023-05-20T01:28:40;13.50;99.90
68354;DHT22;55274;43.060;25.618;2023-05-20T01:31:19;13.40;99.90
68354;DHT22;55274;43.060;25.618;2023-05-20T01:33:52;13.40;99.90
68354;DHT22;55274;43.060;25.618;2023-05-20T01:36:20;13.40;99.90
68354;DHT22;55274;43.060;25.618;2023-05-20T01:38:48;13.40;99.90
68354;DHT22;55274;43.060;25.618;2023-05-20T01:41:14;13.30;99.90
68354;DHT22;55274;43.060;25.618;2023-05-20T01:43:42;13.30;99.90
68354;DHT22;55274;43.060;25.618;2023-05-20T01:46:08;13.30;99.90
68354;DHT22;55274;43.060;25.618;2023-05-20T01:48:34;13.30;99.90
68354;DHT22;55274;43.060;25.618;2023-05-20T01:51:00;13.20;99.90
68354;DHT22;55274;43.060;25.618;2023-05-20T01:53:26;13.10;99.90
68354;DHT22;55274;43.060;25.618;2023-05-20T01:55:51;13.10;99.90
68354;DHT22;55274;43.060;25.618;2023-05-20T01:58:17;13.00;99.90
68354;DHT22;55274;43.060;25.618;2023-05-20T02:00:43;13.00;99.90
68354;DHT22;55274;43.060;25.618;2023-05-20T02:03:09;12.90;99.90
68354;DHT22;55274;43.060;25.618;2023-05-20T02:05:35;12.90;99.90
68354;DHT22;55274;43.060;25.618;2023-05-20T02:08:01;12.80;99.90
68354;DHT22;55274;43.060;25.618;2023-05-20T02:10:27;12.80;99.90
68354;DHT22;55274;43.060;25.618;2023-05-20T02:12:52;12.80;99.90
68354;DHT22;55274;43.060;25.618;2023-05-20T02:15:18;12.80;99.90
68354;DHT22;55274;43.060;25.618;2023-05-20T02:17:45;12.70;99.90
68354;DHT22;55274;43.060;25.618;2023-05-20T02:20:11;12.70;99.90
68354;DHT22;55274;43.060;25.618;2023-05-20T02:22:38;12.70;99.90
68354;DHT22;55274;43.060;25.618;2023-05-20T02:25:04;12.60;99.90
68354;DHT22;55274;43.060;25.618;2023-05-20T02:27:30;12.50;99.90
68354;DHT22;55274;43.060;25.618;2023-05-20T02:29:56;12.60;99.90
68354;DHT22;55274;43.060;25.618;2023-05-20T02:32:22;12.50;99.90
68354;DHT22;55274;43.060;25.618;2023-05-20T02:34:55;12.50;99.90
68354;DHT22;55274;43.060;25.618;2023-05-20T02:37:21;12.50;99.90
68354;DHT22;55274;43.060;25.618;2023-05-20T02:39:47;12.40;99.90
68354;DHT22;55274;43.060;25.618;2023-05-20T02:42:13;12.40;99.90
68354;DHT22;55274;43.060;25.618;2023-05-20T02:44:38;12.40;99.90
68354;DHT22;55274;43.060;25.618;2023-05-20T02:47:05;12.30;99.90
68354;DHT22;55274;43.060;25.618;2023-05-20T02:49:31;12.30;99.90
68354;DHT22;55274;43.060;25.618;2023-05-20T02:51:57;12.30;99.90
68354;DHT22;55274;43.060;25.618;2023-05-20T02:54:22;12.40;99.90
68354;DHT22;55274;43.060;25.618;2023-05-20T02:56:50;12.30;99.90
68354;DHT22;55274;43.060;25.618;2023-05-20T02:59:15;12.30;99.90
68354;DHT22;55274;43.060;25.618;2023-05-20T03:01:41;12.40;99.90
68354;DHT22;55274;43.060;25.618;2023-05-20T03:04:07;12.40;99.90
68354;DHT22;55274;43.060;25.618;2023-05-20T03:06:33;12.40;99.90
68354;DHT22;55274;43.060;25.618;2023-05-20T03:08:59;12.40;99.90
68354;DHT22;55274;43.060;25.618;2023-05-20T03:11:24;12.40;99.90
68354;DHT22;55274;43.060;25.618;2023-05-20T03:13:50;12.40;99.90
68354;DHT22;55274;43.060;25.618;2023-05-20T03:16:16;12.40;99.90
68354;DHT22;55274;43.060;25.618;2023-05-20T03:18:43;12.50;99.90
68354;DHT22;55274;43.060;25.618;2023-05-20T03:21:08;12.50;99.90
68354;DHT22;55274;43.060;25.618;2023-05-20T03:23:34;12.50;99.90
68354;DHT22;55274;43.060;25.618;2023-05-20T03:26:00;12.50;99.90
68354;DHT22;55274;43.060;25.618;2023-05-20T03:28:27;12.50;99.90
68354;DHT22;55274;43.060;25.618;2023-05-20T03:30:53;12.60;99.90
68354;DHT22;55274;43.060;25.618;2023-05-20T03:33:19;12.60;99.90
68354;DHT22;55274;43.060;25.618;2023-05-20T03:35:45;12.60;99.90
68354;DHT22;55274;43.060;25.618;2023-05-20T03:38:11;12.60;99.90
68354;DHT22;55274;43.060;25.618;2023-05-20T03:40:37;12.60;99.90
68354;DHT22;55274;43.060;25.618;2023-05-20T03:43:02;12.60;99.90
68354;DHT22;55274;43.060;25.618;2023-05-20T03:45:28;12.50;99.90
68354;DHT22;55274;43.060;25.618;2023-05-20T03:47:54;12.60;99.90
68354;DHT22;55274;43.060;25.618;2023-05-20T03:50:20;12.50;99.90
68354;DHT22;55274;43.060;25.618;2023-05-20T03:52:45;12.50;99.90
68354;DHT22;55274;43.060;25.618;2023-05-20T03:55:11;12.40;99.90
68354;DHT22;55274;43.060;25.618;2023-05-20T03:57:37;12.50;99.90
68354;DHT22;55274;43.060;25.618;2023-05-20T04:00:04;12.50;99.90
68354;DHT22;55274;43.060;25.618;2023-05-20T04:02:36;12.50;99.90
68354;DHT22;55274;43.060;25.618;2023-05-20T04:05:03;12.50;99.90
68354;DHT22;55274;43.060;25.618;2023-05-20T04:07:29;12.60;99.90
68354;DHT22;55274;43.060;25.618;2023-05-20T04:09:55;12.70;99.90
68354;DHT22;55274;43.060;25.618;2023-05-20T04:12:20;12.70;99.90
68354;DHT22;55274;43.060;25.618;2023-05-20T04:14:46;12.70;99.90
68354;DHT22;55274;43.060;25.618;2023-05-20T04:17:14;12.80;99.90
68354;DHT22;55274;43.060;25.618;2023-05-20T04:19:40;12.90;99.90
68354;DHT22;55274;43.060;25.618;2023-05-20T04:22:06;12.90;99.90
68354;DHT22;55274;43.060;25.618;2023-05-20T04:24:31;12.90;99.90
68354;DHT22;55274;43.060;25.618;2023-05-20T04:26:57;13.00;99.90
68354;DHT22;55274;43.060;25.618;2023-05-20T04:29:23;13.10;99.90
68354;DHT22;55274;43.060;25.618;2023-05-20T04:31:48;13.20;99.90
68354;DHT22;55274;43.060;25.618;2023-05-20T04:34:14;13.20;99.90
68354;DHT22;55274;43.060;25.618;2023-05-20T04:36:44;13.30;99.90
68354;DHT22;55274;43.060;25.618;2023-05-20T04:39:10;13.30;99.90
68354;DHT22;55274;43.060;25.618;2023-05-20T04:41:35;13.30;99.90
68354;DHT22;55274;43.060;25.618;2023-05-20T04:44:01;13.20;99.90
68354;DHT22;55274;43.060;25.618;2023-05-20T04:46:28;13.20;99.90
68354;DHT22;55274;43.060;25.618;2023-05-20T04:48:54;13.30;99.90
68354;DHT22;55274;43.060;25.618;2023-05-20T04:51:20;13.40;99.90
68354;DHT22;55274;43.060;25.618;2023-05-20T04:53:46;13.40;99.90
68354;DHT22;55274;43.060;25.618;2023-05-20T04:56:12;13.60;99.90
68354;DHT22;55274;43.060;25.618;2023-05-20T04:58:38;14.20;99.90
68354;DHT22;55274;43.060;25.618;2023-05-20T05:01:04;14.60;99.90
68354;DHT22;55274;43.060;25.618;2023-05-20T05:03:30;15.30;99.90
68354;DHT22;55274;43.060;25.618;2023-05-20T05:05:56;15.90;99.90
68354;DHT22;55274;43.060;25.618;2023-05-20T05:08:22;16.50;99.90
68354;DHT22;55274;43.060;25.618;2023-05-20T05:10:48;17.00;99.90
68354;DHT22;55274;43.060;25.618;2023-05-20T05:13:14;17.50;99.90
68354;DHT22;55274;43.060;25.618;2023-05-20T05:15:40;17.90;99.90
68354;DHT22;55274;43.060;25.618;2023-05-20T05:18:05;18.10;99.90
68354;DHT22;55274;43.060;25.618;2023-05-20T05:20:31;18.10;99.90
68354;DHT22;55274;43.060;25.618;2023-05-20T05:22:57;18.10;99.90
68354;DHT22;55274;43.060;25.618;2023-05-20T05:25:23;17.80;99.90
68354;DHT22;55274;43.060;25.618;2023-05-20T05:27:49;18.00;99.90
68354;DHT22;55274;43.060;25.618;2023-05-20T05:30:15;18.10;99.90
68354;DHT22;55274;43.060;25.618;2023-05-20T05:32:41;18.00;99.90
68354;DHT22;55274;43.060;25.618;2023-05-20T05:35:07;17.90;99.90
68354;DHT22;55274;43.060;25.618;2023-05-20T05:37:33;17.90;99.90
68354;DHT22;55274;43.060;25.618;2023-05-20T05:39:59;17.80;99.90
68354;DHT22;55274;43.060;25.618;2023-05-20T05:42:24;17.70;99.90
68354;DHT22;55274;43.060;25.618;2023-05-20T05:44:50;17.80;99.90
68354;DHT22;55274;43.060;25.618;2023-05-20T05:47:16;18.00;99.90
68354;DHT22;55274;43.060;25.618;2023-05-20T05:49:42;18.30;99.90
68354;DHT22;55274;43.060;25.618;2023-05-20T05:52:08;18.40;99.90
68354;DHT22;55274;43.060;25.618;2023-05-20T05:54:34;18.30;99.90
68354;DHT22;55274;43.060;25.618;2023-05-20T05:57:00;18.10;99.90
68354;DHT22;55274;43.060;25.618;2023-05-20T05:59:25;18.00;99.90
68354;DHT22;55274;43.060;25.618;2023-05-20T06:01:51;18.10;99.90
68354;DHT22;55274;43.060;25.618;2023-05-20T06:04:17;18.10;99.90
68354;DHT22;55274;43.060;25.618;2023-05-20T06:06:43;18.30;99.90
68354;DHT22;55274;43.060;25.618;2023-05-20T06:09:08;18.30;99.90
68354;DHT22;55274;43.060;25.618;2023-05-20T06:11:34;18.30;99.90
68354;DHT22;55274;43.060;25.618;2023-05-20T06:14:00;18.50;99.90
68354;DHT22;55274;43.060;25.618;2023-05-20T06:16:26;18.60;99.90
68354;DHT22;55274;43.060;25.618;2023-05-20T06:18:52;18.50;99.90
68354;DHT22;55274;43.060;25.618;2023-05-20T06:21:22;18.70;99.90
68354;DHT22;55274;43.060;25.618;2023-05-20T06:23:48;19.00;99.90
68354;DHT22;55274;43.060;25.618;2023-05-20T06:26:14;19.40;99.90
68354;DHT22;55274;43.060;25.618;2023-05-20T06:28:40;19.60;99.90
68354;DHT22;55274;43.060;25.618;2023-05-20T06:31:05;20.20;99.90
68354;DHT22;55274;43.060;25.618;2023-05-20T06:33:31;20.50;99.90
68354;DHT22;55274;43.060;25.618;2023-05-20T06:35:57;20.80;99.90
68354;DHT22;55274;43.060;25.618;2023-05-20T06:38:23;21.10;99.90
68354;DHT22;55274;43.060;25.618;2023-05-20T06:40:49;21.40;99.90
68354;DHT22;55274;43.060;25.618;2023-05-20T06:43:16;21.20;99.90
68354;DHT22;55274;43.060;25.618;2023-05-20T06:45:42;21.20;99.90
68354;DHT22;55274;43.060;25.618;2023-05-20T06:48:08;21.00;99.90
68354;DHT22;55274;43.060;25.618;2023-05-20T06:50:34;20.80;99.90
68354;DHT22;55274;43.060;25.618;2023-05-20T06:53:00;20.70;99.90
68354;DHT22;55274;43.060;25.618;2023-05-20T06:55:26;20.60;99.90
68354;DHT22;55274;43.060;25.618;2023-05-20T06:57:52;20.50;99.90
68354;DHT22;55274;43.060;25.618;2023-05-20T07:00:18;20.40;99.90
68354;DHT22;55274;43.060;25.618;2023-05-20T07:02:43;20.20;99.90
68354;DHT22;55274;43.060;25.618;2023-05-20T07:05:10;20.30;99.90
68354;DHT22;55274;43.060;25.618;2023-05-20T07:07:37;20.20;99.90
68354;DHT22;55274;43.060;25.618;2023-05-20T07:10:04;20.10;99.90
68354;DHT22;55274;43.060;25.618;2023-05-20T07:12:32;20.00;99.90
68354;DHT22;55274;43.060;25.618;2023-05-20T07:14:58;20.10;99.90
68354;DHT22;55274;43.060;25.618;2023-05-20T07:17:24;20.20;99.90
68354;DHT22;55274;43.060;25.618;2023-05-20T07:19:51;20.20;99.90
68354;DHT22;55274;43.060;25.618;2023-05-20T07:22:17;20.20;99.90
68354;DHT22;55274;43.060;25.618;2023-05-20T07:24:44;20.10;99.90
68354;DHT22;55274;43.060;25.618;2023-05-20T07:27:10;20.10;99.90
68354;DHT22;55274;43.060;25.618;2023-05-20T07:29:36;20.10;99.90
68354;DHT22;55274;43.060;25.618;2023-05-20T07:32:03;20.20;99.90
68354;DHT22;55274;43.060;25.618;2023-05-20T07:34:30;20.30;99.90
68354;DHT22;55274;43.060;25.618;2023-05-20T07:36:56;20.40;99.90
68354;DHT22;55274;43.060;25.618;2023-05-20T07:39:22;20.70;99.40
68354;DHT22;55274;43.060;25.618;2023-05-20T07:41:48;21.20;99.50
68354;DHT22;55274;43.060;25.618;2023-05-20T07:44:14;21.30;93.40
68354;DHT22;55274;43.060;25.618;2023-05-20T07:46:43;21.50;94.30
68354;DHT22;55274;43.060;25.618;2023-05-20T07:49:09;21.90;91.70
68354;DHT22;55274;43.060;25.618;2023-05-20T07:51:35;21.90;88.50
68354;DHT22;55274;43.060;25.618;2023-05-20T07:54:01;22.20;89.60
68354;DHT22;55274;43.060;25.618;2023-05-20T07:56:27;22.20;88.80
68354;DHT22;55274;43.060;25.618;2023-05-20T07:58:56;22.00;89.30
68354;DHT22;55274;43.060;25.618;2023-05-20T08:01:23;21.90;89.90
68354;DHT22;55274;43.060;25.618;2023-05-20T08:03:49;22.00;88.70
68354;DHT22;55274;43.060;25.618;2023-05-20T08:06:15;21.90;87.80
68354;DHT22;55274;43.060;25.618;2023-05-20T08:08:42;21.90;87.90
68354;DHT22;55274;43.060;25.618;2023-05-20T08:11:08;21.80;87.70
68354;DHT22;55274;43.060;25.618;2023-05-20T08:13:34;21.80;86.90
68354;DHT22;55274;43.060;25.618;2023-05-20T08:16:01;21.90;87.10
68354;DHT22;55274;43.060;25.618;2023-05-20T08:18:28;21.90;86.60
68354;DHT22;55274;43.060;25.618;2023-05-20T08:20:54;21.90;86.50
68354;DHT22;55274;43.060;25.618;2023-05-20T08:23:20;21.90;87.10
68354;DHT22;55274;43.060;25.618;2023-05-20T08:25:46;21.90;87.30
68354;DHT22;55274;43.060;25.618;2023-05-20T08:28:12;22.00;86.60
68354;DHT22;55274;43.060;25.618;2023-05-20T08:30:38;22.10;85.40
68354;DHT22;55274;43.060;25.618;2023-05-20T08:33:04;22.10;87.20
68354;DHT22;55274;43.060;25.618;2023-05-20T08:35:30;22.20;83.90
68354;DHT22;55274;43.060;25.618;2023-05-20T08:37:56;22.00;84.40
68354;DHT22;55274;43.060;25.618;2023-05-20T08:40:22;21.90;86.50
68354;DHT22;55274;43.060;25.618;2023-05-20T08:42:49;21.80;84.90
68354;DHT22;55274;43.060;25.618;2023-05-20T08:45:18;21.80;85.30
68354;DHT22;55274;43.060;25.618;2023-05-20T08:47:45;21.80;85.90
68354;DHT22;55274;43.060;25.618;2023-05-20T08:50:12;21.70;85.70
68354;DHT22;55274;43.060;25.618;2023-05-20T08:52:44;21.80;85.30
68354;DHT22;55274;43.060;25.618;2023-05-20T08:55:37;21.90;85.30
68354;DHT22;55274;43.060;25.618;2023-05-20T08:58:04;21.90;85.60
68354;DHT22;55274;43.060;25.618;2023-05-20T09:00:30;21.90;84.70
68354;DHT22;55274;43.060;25.618;2023-05-20T09:02:58;21.90;85.60
68354;DHT22;55274;43.060;25.618;2023-05-20T09:05:24;21.90;85.30
68354;DHT22;55274;43.060;25.618;2023-05-20T09:07:50;21.90;84.40
68354;DHT22;55274;43.060;25.618;2023-05-20T09:10:16;21.70;84.50
68354;DHT22;55274;43.060;25.618;2023-05-20T09:12:42;21.60;85.90
68354;DHT22;55274;43.060;25.618;2023-05-20T09:15:08;21.50;89.60
68354;DHT22;55274;43.060;25.618;2023-05-20T09:17:34;21.30;89.10
68354;DHT22;55274;43.060;25.618;2023-05-20T09:20:05;21.20;92.40
68354;DHT22;55274;43.060;25.618;2023-05-20T09:22:33;21.10;93.90
68354;DHT22;55274;43.060;25.618;2023-05-20T09:24:59;21.00;95.30
68354;DHT22;55274;43.060;25.618;2023-05-20T09:27:25;20.80;96.70
68354;DHT22;55274;43.060;25.618;2023-05-20T09:29:50;20.70;99.90
68354;DHT22;55274;43.060;25.618;2023-05-20T09:32:17;20.70;99.90
68354;DHT22;55274;43.060;25.618;2023-05-20T09:34:46;20.60;99.90
68354;DHT22;55274;43.060;25.618;2023-05-20T09:37:13;20.50;99.90
68354;DHT22;55274;43.060;25.618;2023-05-20T09:42:21;20.50;99.90
68354;DHT22;55274;43.060;25.618;2023-05-20T09:44:52;20.50;99.90
68354;DHT22;55274;43.060;25.618;2023-05-20T09:47:19;20.60;99.90
68354;DHT22;55274;43.060;25.618;2023-05-20T09:49:45;20.60;99.90
68354;DHT22;55274;43.060;25.618;2023-05-20T09:52:14;20.60;99.90
68354;DHT22;55274;43.060;25.618;2023-05-20T09:54:42;20.70;99.90
68354;DHT22;55274;43.060;25.618;2023-05-20T09:57:09;20.80;99.90
68354;DHT22;55274;43.060;25.618;2023-05-20T09:59:36;21.20;99.90
68354;DHT22;55274;43.060;25.618;2023-05-20T10:02:04;21.40;99.90
68354;DHT22;55274;43.060;25.618;2023-05-20T10:04:33;21.50;97.90
68354;DHT22;55274;43.060;25.618;2023-05-20T10:15:26;21.80;93.50
68354;DHT22;55274;43.060;25.618;2023-05-20T10:20:47;23.10;90.40
68354;DHT22;55274;43.060;25.618;2023-05-20T10:23:27;23.20;87.40
68354;DHT22;55274;43.060;25.618;2023-05-20T10:25:54;23.20;86.20
68354;DHT22;55274;43.060;25.618;2023-05-20T10:28:34;23.50;85.60
68354;DHT22;55274;43.060;25.618;2023-05-20T10:31:19;24.00;79.70
68354;DHT22;55274;43.060;25.618;2023-05-20T10:33:46;24.30;78.60
68354;DHT22;55274;43.060;25.618;2023-05-20T10:36:44;24.60;78.20
68354;DHT22;55274;43.060;25.618;2023-05-20T10:39:14;24.70;77.50
68354;DHT22;55274;43.060;25.618;2023-05-20T10:41:41;24.50;74.60
68354;DHT22;55274;43.060;25.618;2023-05-20T10:44:07;24.70;77.20
68354;DHT22;55274;43.060;25.618;2023-05-20T10:46:33;24.60;74.20
68354;DHT22;55274;43.060;25.618;2023-05-20T10:49:01;24.90;75.50
68354;DHT22;55274;43.060;25.618;2023-05-20T10:51:28;25.00;74.30
68354;DHT22;55274;43.060;25.618;2023-05-20T10:53:56;25.50;74.30
68354;DHT22;55274;43.060;25.618;2023-05-20T10:56:24;25.70;69.30
68354;DHT22;55274;43.060;25.618;2023-05-20T10:58:51;25.90;70.70
68354;DHT22;55274;43.060;25.618;2023-05-20T11:01:17;26.00;67.90
68354;DHT22;55274;43.060;25.618;2023-05-20T11:03:44;26.00;67.50
68354;DHT22;55274;43.060;25.618;2023-05-20T11:06:16;26.20;70.40
68354;DHT22;55274;43.060;25.618;2023-05-20T11:08:43;26.30;67.10
68354;DHT22;55274;43.060;25.618;2023-05-20T11:11:12;26.20;67.40
68354;DHT22;55274;43.060;25.618;2023-05-20T11:13:39;26.30;65.40
68354;DHT22;55274;43.060;25.618;2023-05-20T11:16:05;26.20;66.80
68354;DHT22;55274;43.060;25.618;2023-05-20T11:18:31;26.30;65.40
68354;DHT22;55274;43.060;25.618;2023-05-20T11:20:58;26.10;68.60
68354;DHT22;55274;43.060;25.618;2023-05-20T11:23:25;25.90;67.00
68354;DHT22;55274;43.060;25.618;2023-05-20T11:25:53;26.00;69.10
68354;DHT22;55274;43.060;25.618;2023-05-20T11:28:19;26.10;67.90
68354;DHT22;55274;43.060;25.618;2023-05-20T11:30:49;26.00;65.40
68354;DHT22;55274;43.060;25.618;2023-05-20T11:33:16;25.40;66.40
68354;DHT22;55274;43.060;25.618;2023-05-20T11:35:52;25.50;67.40
68354;DHT22;55274;43.060;25.618;2023-05-20T11:38:19;25.80;63.70
68354;DHT22;55274;43.060;25.618;2023-05-20T11:40:50;26.00;65.80
68354;DHT22;55274;43.060;25.618;2023-05-20T11:43:17;26.00;66.80
68354;DHT22;55274;43.060;25.618;2023-05-20T11:45:44;26.10;63.20
68354;DHT22;55274;43.060;25.618;2023-05-20T11:48:10;26.30;63.80
68354;DHT22;55274;43.060;25.618;2023-05-20T11:50:41;26.40;63.00
68354;DHT22;55274;43.060;25.618;2023-05-20T11:53:18;26.40;61.10
68354;DHT22;55274;43.060;25.618;2023-05-20T11:58:14;26.60;63.60
68354;DHT22;55274;43.060;25.618;2023-05-20T12:00:40;26.60;61.20
68354;DHT22;55274;43.060;25.618;2023-05-20T12:03:05;26.80;61.90
68354;DHT22;55274;43.060;25.618;2023-05-20T12:05:31;26.70;61.40
68354;DHT22;55274;43.060;25.618;2023-05-20T12:07:57;26.80;62.10
68354;DHT22;55274;43.060;25.618;2023-05-20T12:10:23;26.80;62.10
68354;DHT22;55274;43.060;25.618;2023-05-20T12:12:48;26.70;61.40
68354;DHT22;55274;43.060;25.618;2023-05-20T12:15:14;26.80;61.00
68354;DHT22;55274;43.060;25.618;2023-05-20T12:17:46;26.70;60.10
68354;DHT22;55274;43.060;25.618;2023-05-20T12:20:14;26.70;61.40
68354;DHT22;55274;43.060;25.618;2023-05-20T12:22:42;26.90;62.70
68354;DHT22;55274;43.060;25.618;2023-05-20T12:25:13;27.00;61.80
68354;DHT22;55274;43.060;25.618;2023-05-20T12:27:40;26.90;60.90
68354;DHT22;55274;43.060;25.618;2023-05-20T12:30:08;26.80;59.60
68354;DHT22;55274;43.060;25.618;2023-05-20T12:32:37;26.80;60.50
68354;DHT22;55274;43.060;25.618;2023-05-20T12:35:03;27.00;60.30
68354;DHT22;55274;43.060;25.618;2023-05-20T12:37:29;27.00;59.10
68354;DHT22;55274;43.060;25.618;2023-05-20T12:39:55;26.90;58.70
68354;DHT22;55274;43.060;25.618;2023-05-20T12:42:21;27.10;59.70
68354;DHT22;55274;43.060;25.618;2023-05-20T12:44:47;27.10;58.50
68354;DHT22;55274;43.060;25.618;2023-05-20T12:47:12;27.00;58.40
68354;DHT22;55274;43.060;25.618;2023-05-20T12:49:38;26.90;58.40
68354;DHT22;55274;43.060;25.618;2023-05-20T12:52:04;26.60;59.70
68354;DHT22;55274;43.060;25.618;2023-05-20T12:54:30;26.40;61.50
68354;DHT22;55274;43.060;25.618;2023-05-20T12:56:56;26.20;61.60
68354;DHT22;55274;43.060;25.618;2023-05-20T12:59:22;25.90;61.60
68354;DHT22;55274;43.060;25.618;2023-05-20T13:01:48;25.90;62.00
68354;DHT22;55274;43.060;25.618;2023-05-20T13:04:14;25.90;63.40
68354;DHT22;55274;43.060;25.618;2023-05-20T13:06:40;25.90;63.00
68354;DHT22;55274;43.060;25.618;2023-05-20T13:09:06;26.00;62.90
68354;DHT22;55274;43.060;25.618;2023-05-20T13:11:33;25.90;62.00
68354;DHT22;55274;43.060;25.618;2023-05-20T13:13:59;25.90;61.30
68354;DHT22;55274;43.060;25.618;2023-05-20T13:16:25;25.90;60.20
68354;DHT22;55274;43.060;25.618;2023-05-20T13:18:51;25.90;60.30
68354;DHT22;55274;43.060;25.618;2023-05-20T13:21:17;25.80;61.80
68354;DHT22;55274;43.060;25.618;2023-05-20T13:23:43;25.90;62.40
68354;DHT22;55274;43.060;25.618;2023-05-20T13:26:08;25.90;63.30
68354;DHT22;55274;43.060;25.618;2023-05-20T13:28:34;25.90;63.00
68354;DHT22;55274;43.060;25.618;2023-05-20T13:31:04;26.10;63.70
68354;DHT22;55274;43.060;25.618;2023-05-20T13:33:31;26.10;63.30
68354;DHT22;55274;43.060;25.618;2023-05-20T13:35:57;26.20;62.20
68354;DHT22;55274;43.060;25.618;2023-05-20T13:38:22;26.40;62.70
68354;DHT22;55274;43.060;25.618;2023-05-20T13:40:48;26.30;61.60
68354;DHT22;55274;43.060;25.618;2023-05-20T13:43:15;26.20;63.00
68354;DHT22;55274;43.060;25.618;2023-05-20T13:45:41;26.10;61.20
68354;DHT22;55274;43.060;25.618;2023-05-20T13:48:07;26.00;62.20
68354;DHT22;55274;43.060;25.618;2023-05-20T13:50:33;26.10;62.70
68354;DHT22;55274;43.060;25.618;2023-05-20T13:52:59;26.00;62.20
68354;DHT22;55274;43.060;25.618;2023-05-20T13:55:24;25.80;61.90
68354;DHT22;55274;43.060;25.618;2023-05-20T13:57:50;25.70;63.20
68354;DHT22;55274;43.060;25.618;2023-05-20T14:00:19;25.50;63.30
68354;DHT22;55274;43.060;25.618;2023-05-20T14:02:45;25.10;63.90
68354;DHT22;55274;43.060;25.618;2023-05-20T14:05:12;23.30;66.90
68354;DHT22;55274;43.060;25.618;2023-05-20T14:07:37;21.90;71.20
68354;DHT22;55274;43.060;25.618;2023-05-20T14:10:04;21.00;76.10
68354;DHT22;55274;43.060;25.618;2023-05-20T14:12:30;20.20;82.00
68354;DHT22;55274;43.060;25.618;2023-05-20T14:14:56;19.80;86.20
68354;DHT22;55274;43.060;25.618;2023-05-20T14:17:22;19.60;89.80
68354;DHT22;55274;43.060;25.618;2023-05-20T14:19:48;19.00;93.00
68354;DHT22;55274;43.060;25.618;2023-05-20T14:22:13;18.70;96.00
68354;DHT22;55274;43.060;25.618;2023-05-20T14:24:40;18.40;99.90
68354;DHT22;55274;43.060;25.618;2023-05-20T14:27:06;18.50;99.90
68354;DHT22;55274;43.060;25.618;2023-05-20T14:29:31;18.50;99.90
68354;DHT22;55274;43.060;25.618;2023-05-20T14:31:57;18.50;99.90
68354;DHT22;55274;43.060;25.618;2023-05-20T14:34:23;18.40;99.90
68354;DHT22;55274;43.060;25.618;2023-05-20T14:36:49;18.30;99.90
68354;DHT22;55274;43.060;25.618;2023-05-20T14:39:14;18.40;99.90
68354;DHT22;55274;43.060;25.618;2023-05-20T14:41:41;18.30;99.90
68354;DHT22;55274;43.060;25.618;2023-05-20T14:44:07;18.10;99.90
68354;DHT22;55274;43.060;25.618;2023-05-20T14:46:33;18.00;99.90
68354;DHT22;55274;43.060;25.618;2023-05-20T14:48:59;18.00;99.90
68354;DHT22;55274;43.060;25.618;2023-05-20T14:51:24;17.90;99.90
68354;DHT22;55274;43.060;25.618;2023-05-20T14:53:50;17.90;99.90
68354;DHT22;55274;43.060;25.618;2023-05-20T14:56:16;17.90;99.90
68354;DHT22;55274;43.060;25.618;2023-05-20T14:58:42;17.90;99.90
68354;DHT22;55274;43.060;25.618;2023-05-20T15:01:07;17.80;99.90
68354;DHT22;55274;43.060;25.618;2023-05-20T15:03:33;17.80;99.90
68354;DHT22;55274;43.060;25.618;2023-05-20T15:05:59;17.80;99.90
68354;DHT22;55274;43.060;25.618;2023-05-20T15:08:25;17.80;99.90
68354;DHT22;55274;43.060;25.618;2023-05-20T15:10:50;17.80;99.90
68354;DHT22;55274;43.060;25.618;2023-05-20T15:13:16;17.80;99.90
68354;DHT22;55274;43.060;25.618;2023-05-20T15:15:42;17.80;99.90
68354;DHT22;55274;43.060;25.618;2023-05-20T15:18:08;17.80;99.90
68354;DHT22;55274;43.060;25.618;2023-05-20T15:20:33;17.80;99.90
68354;DHT22;55274;43.060;25.618;2023-05-20T15:22:59;17.80;99.90
68354;DHT22;55274;43.060;25.618;2023-05-20T15:25:25;17.80;99.90
68354;DHT22;55274;43.060;25.618;2023-05-20T15:27:51;17.70;99.90